Time;durP1;ratioP1;P1;durP2;ratioP2;P2;SDS_P1;SDS_P2;PMS_P1;PMS_P2;Temp;Humidity;BMP_temperature;BMP_pressure;BME280_temperature;BME280_humidity;BME280_pressure;Samples;Min_cycle;Max_cycle;Signal;HPM_P1;HPM_P2
2022/08/19 00:01:51;;;;;;;9.55;3.50;;;;;;;29.43;52.24;96195.91;5093108;28;20462;-37
2022/08/19 00:04:18;;;;;;;8.15;3.00;;;;;;;29.39;52.32;96193.50;5092852;28;20039;-37
2022/08/19 00:06:46;;;;;;;11.68;3.63;;;;;;;29.44;52.33;96175.06;5092822;28;20024;-38
2022/08/19 00:09:14;;;;;;;9.85;3.20;;;;;;;29.39;52.73;96162.78;5092734;28;20051;-37
2022/08/19 00:11:40;;;;;;;12.88;3.85;;;;;;;29.37;52.83;96159.75;5092658;28;20035;-37
2022/08/19 00:14:09;;;;;;;10.82;3.30;;;;;;;29.42;52.38;96186.81;5093028;28;20024;-38
2022/08/19 00:16:36;;;;;;;9.02;3.00;;;;;;;29.39;52.64;96195.56;5096056;28;20030;-40
2022/08/19 00:19:02;;;;;;;8.57;3.67;;;;;;;29.43;52.66;96181.94;5096550;28;20018;-37
2022/08/19 00:21:28;;;;;;;11.82;3.28;;;;;;;29.40;52.74;96161.47;5096279;28;20028;-41
2022/08/19 00:23:56;;;;;;;9.02;3.25;;;;;;;29.40;52.46;96153.09;5096210;28;20020;-38
2022/08/19 00:26:22;;;;;;;7.78;3.20;;;;;;;29.38;52.35;96152.16;5096474;28;20024;-40
2022/08/19 00:28:47;;;;;;;7.20;3.28;;;;;;;29.41;52.23;96145.47;5096408;28;20103;-40
2022/08/19 00:31:13;;;;;;;10.93;3.88;;;;;;;29.40;52.68;96174.69;5096127;28;20111;-39
2022/08/19 00:33:38;;;;;;;9.50;3.47;;;;;;;29.38;52.86;96164.09;5095968;28;20036;-38
2022/08/19 00:36:06;;;;;;;8.20;3.67;;;;;;;29.39;52.54;96143.22;5094980;28;20027;-39
2022/08/19 00:38:33;;;;;;;9.30;3.20;;;;;;;29.33;52.88;96123.06;5095943;28;20046;-37
2022/08/19 00:40:58;;;;;;;12.40;3.45;;;;;;;29.37;52.74;96123.44;5095924;28;20124;-37
2022/08/19 00:43:26;;;;;;;11.90;3.90;;;;;;;29.38;52.60;96130.56;5095882;28;20020;-36
2022/08/19 00:45:52;;;;;;;6.78;3.08;;;;;;;29.41;52.21;96129.44;5095752;28;20035;-38
2022/08/19 00:48:19;;;;;;;9.88;4.07;;;;;;;29.35;52.67;96137.22;5095682;28;20028;-37
2022/08/19 00:50:45;;;;;;;9.50;3.22;;;;;;;29.38;52.51;96130.56;5100294;28;20028;-39
2022/08/19 00:53:14;;;;;;;7.65;3.15;;;;;;;29.44;52.19;96128.31;5096517;28;20431;-38
2022/08/19 00:55:42;;;;;;;8.82;3.33;;;;;;;29.39;52.59;96132.06;5109300;28;20027;-37
2022/08/19 00:58:11;;;;;;;7.50;3.08;;;;;;;29.38;52.55;96141.00;5115841;28;20038;-39
2022/08/19 01:00:38;;;;;;;8.80;3.47;;;;;;;29.43;52.55;96142.81;5116234;28;20035;-38
2022/08/19 01:03:10;;;;;;;9.30;3.33;;;;;;;29.44;52.09;96138.72;5115965;28;20026;-40
2022/08/19 01:05:36;;;;;;;;;;;;;;;29.38;52.37;96129.81;5116401;28;20023;-37
2022/08/19 01:08:05;;;;;;;9.13;3.33;;;;;;;29.42;52.08;96130.94;5115712;28;19908;-37
2022/08/19 01:10:35;;;;;;;9.82;3.30;;;;;;;29.40;52.35;96141.91;5115842;28;20034;-37
2022/08/19 01:13:02;;;;;;;7.75;3.10;;;;;;;29.36;52.30;96144.31;5115675;28;20031;-38
2022/08/19 01:15:33;;;;;;;7.78;3.00;;;;;;;29.36;52.15;96143.56;5115961;28;20073;-38
2022/08/19 01:18:07;;;;;;;6.95;2.97;;;;;;;29.38;52.22;96150.13;5115532;28;20047;-38
2022/08/19 01:20:34;;;;;;;9.25;2.88;;;;;;;29.38;52.44;96155.69;5115850;28;20407;-37
2022/08/19 01:23:00;;;;;;;10.18;3.15;;;;;;;29.34;52.16;96165.72;5115487;28;20024;-38
2022/08/19 01:25:40;;;;;;;9.55;2.72;;;;;;;29.31;52.36;96159.94;5115325;28;20093;-37
2022/08/19 01:28:06;;;;;;;9.45;3.08;;;;;;;29.29;52.14;96153.44;5115238;28;20035;-38
2022/08/19 01:30:35;;;;;;;5.65;2.72;;;;;;;29.36;52.44;96149.91;5115387;28;20027;-37
2022/08/19 01:33:05;;;;;;;8.93;3.28;;;;;;;29.25;52.60;96156.59;5115424;28;20030;-37
2022/08/19 01:35:32;;;;;;;8.80;3.03;;;;;;;29.32;52.05;96160.69;5115332;28;20024;-38
2022/08/19 01:38:05;;;;;;;5.68;2.60;;;;;;;29.30;52.48;96164.03;5115166;28;20427;-38
2022/08/19 01:40:33;;;;;;;11.98;4.07;;;;;;;29.33;52.36;96155.84;5115188;27;20071;-39
2022/08/19 01:42:59;;;;;;;8.82;2.55;;;;;;;29.34;52.38;96154.53;5115119;28;20023;-38
2022/08/19 01:45:28;;;;;;;9.30;3.35;;;;;;;29.29;52.28;96154.19;5115003;28;20024;-37
2022/08/19 01:47:54;;;;;;;9.13;3.25;;;;;;;29.31;52.35;96167.56;5114897;28;20027;-38
2022/08/19 01:50:21;;;;;;;7.32;2.88;;;;;;;29.33;52.27;96167.75;5115133;28;20109;-38
2022/08/19 01:52:47;;;;;;;8.00;2.90;;;;;;;29.30;52.27;96158.44;5115414;28;20032;-40
2022/08/19 01:55:15;;;;;;;9.13;2.97;;;;;;;29.34;52.20;96163.66;5114641;28;20072;-38
2022/08/19 01:57:44;;;;;;;7.22;3.15;;;;;;;29.34;52.50;96151.75;5114936;28;20023;-38
2022/08/19 02:00:15;;;;;;;7.40;3.38;;;;;;;29.33;52.18;96155.84;5114962;28;20385;-38
2022/08/19 02:02:40;;;;;;;10.25;3.10;;;;;;;29.35;52.01;96170.75;5114769;28;20027;-37
2022/08/19 02:05:07;;;;;;;7.78;2.80;;;;;;;29.32;52.41;96169.06;5114582;28;20030;-37
2022/08/19 02:07:35;;;;;;;6.60;2.95;;;;;;;29.35;52.16;96164.41;5115135;28;20027;-37
2022/08/19 02:10:05;;;;;;;6.55;2.47;;;;;;;29.32;52.13;96171.84;5114296;28;20048;-38
2022/08/19 02:12:31;;;;;;;9.40;2.65;;;;;;;29.37;52.37;96164.59;5114554;28;20423;-40
2022/08/19 02:14:56;;;;;;;8.57;3.00;;;;;;;29.29;52.28;96161.81;5114403;28;20027;-41
2022/08/19 02:17:22;;;;;;;9.15;2.97;;;;;;;29.28;52.23;96168.72;5114707;28;20023;-37
2022/08/19 02:19:48;;;;;;;6.15;2.42;;;;;;;29.31;52.32;96171.13;5114342;28;20020;-37
2022/08/19 02:22:14;;;;;;;6.82;2.67;;;;;;;29.27;52.43;96176.34;5114107;28;20106;-37
2022/08/19 02:24:40;;;;;;;5.53;2.40;;;;;;;29.35;52.21;96170.00;5114308;28;20058;-39
2022/08/19 02:27:06;;;;;;;6.57;2.15;;;;;;;29.29;52.34;96173.00;5114162;28;20024;-37
2022/08/19 02:29:31;;;;;;;6.18;2.28;;;;;;;29.31;52.13;96170.38;5114143;28;20035;-38
2022/08/19 02:31:57;;;;;;;6.72;2.20;;;;;;;29.24;52.26;96176.72;5114258;28;20072;-37
2022/08/19 02:34:24;;;;;;;5.32;2.30;;;;;;;29.32;51.99;96177.44;5114117;28;20461;-37
2022/08/19 02:36:50;;;;;;;10.20;2.72;;;;;;;29.26;52.16;96185.28;5113757;28;20030;-37
2022/08/19 02:39:15;;;;;;;7.10;2.83;;;;;;;29.26;52.24;96191.63;5113754;28;20020;-38
2022/08/19 02:41:41;;;;;;;8.75;2.65;;;;;;;29.29;51.84;96189.75;5114191;28;20023;-37
2022/08/19 02:44:06;;;;;;;8.25;3.08;;;;;;;29.23;52.27;96200.34;5114017;28;20108;-37
2022/08/19 02:46:33;;;;;;;6.18;2.75;;;;;;;29.24;52.26;96210.97;5114203;28;20123;-38
2022/08/19 02:49:05;;;;;;;6.38;2.65;;;;;;;29.25;51.78;96222.88;5113878;28;20054;-38
2022/08/19 02:51:41;;;;;;;7.50;2.17;;;;;;;29.25;52.03;96231.28;5114132;28;20024;-39
2022/08/19 02:54:14;;;;;;;8.00;2.78;;;;;;;29.27;52.16;96228.66;5114168;28;20476;-38
2022/08/19 02:56:41;;;;;;;7.53;2.42;;;;;;;29.26;51.82;96232.75;5113901;28;20028;-38
2022/08/19 02:59:09;;;;;;;7.50;2.35;;;;;;;29.31;51.53;96237.41;5113858;28;20019;-37
2022/08/19 03:01:35;;;;;;;6.57;2.80;;;;;;;29.27;51.76;96232.22;5113635;28;20030;-37
2022/08/19 03:04:03;;;;;;;6.18;2.50;;;;;;;29.21;51.92;96225.28;5114428;28;20080;-39
2022/08/19 03:06:30;;;;;;;7.90;2.72;;;;;;;29.26;51.74;96232.75;5113945;28;20027;-37
2022/08/19 03:08:56;;;;;;;6.85;3.00;;;;;;;29.29;51.72;96240.03;5113346;28;20516;-38
2022/08/19 03:11:26;;;;;;;5.00;2.50;;;;;;;29.28;51.83;96239.28;5113794;28;20111;-38
2022/08/19 03:13:53;;;;;;;5.40;2.00;;;;;;;29.33;51.67;96245.22;5113641;28;20103;-37
2022/08/19 03:16:20;;;;;;;7.03;2.30;;;;;;;29.30;51.69;96241.53;5112510;28;20080;-37
2022/08/19 03:18:46;;;;;;;6.00;2.25;;;;;;;29.30;51.57;96241.53;5113576;28;20019;-37
2022/08/19 03:21:26;;;;;;;7.68;2.80;;;;;;;29.29;51.57;96245.63;5113704;28;20462;-37
2022/08/19 03:23:56;;;;;;;6.20;2.20;;;;;;;29.32;51.64;96241.69;5113621;28;20069;-37
2022/08/19 03:26:21;;;;;;;5.30;2.22;;;;;;;29.26;51.60;96239.09;5120749;28;20098;-38
2022/08/19 03:28:49;;;;;;;6.03;2.33;;;;;;;29.23;51.83;96237.41;5134092;27;20053;-37
2022/08/19 03:31:17;;;;;;;8.82;2.17;;;;;;;29.25;51.43;96236.84;5134343;27;20024;-38
2022/08/19 03:33:44;;;;;;;6.32;2.60;;;;;;;29.22;51.73;96241.50;5132809;28;20023;-38
2022/08/19 03:36:25;;;;;;;5.93;2.13;;;;;;;29.18;51.83;96246.69;5134331;27;20102;-38
2022/08/19 03:38:54;;;;;;;5.43;2.53;;;;;;;29.14;51.76;96246.34;5133208;27;20424;-38
2022/08/19 03:41:25;;;;;;;6.00;2.33;;;;;;;29.16;51.83;96248.56;5134059;27;20053;-38
2022/08/19 03:43:53;;;;;;;6.25;2.22;;;;;;;29.19;51.55;96247.44;5133990;27;20031;-37
2022/08/19 03:46:21;;;;;;;7.65;2.50;;;;;;;29.23;51.38;96259.75;5134060;27;20429;-37
2022/08/19 03:48:48;;;;;;;4.43;2.05;;;;;;;29.20;51.27;96240.56;5134815;27;20449;-38
2022/08/19 03:51:21;;;;;;;5.38;2.30;;;;;;;29.20;51.32;96237.75;5137760;27;20114;-38
2022/08/19 03:53:47;;;;;;;4.88;2.20;;;;;;;29.15;51.61;96236.66;5137701;27;20038;-37
2022/08/19 03:56:13;;;;;;;7.13;2.28;;;;;;;29.14;51.39;96243.53;5137834;27;20031;-37
2022/08/19 03:58:40;;;;;;;6.55;2.45;;;;;;;29.21;51.26;96253.22;5137840;27;20038;-38
2022/08/19 04:01:14;;;;;;;5.18;2.08;;;;;;;29.19;51.26;96250.22;5137597;27;20137;-39
2022/08/19 04:03:39;;;;;;;6.43;2.25;;;;;;;29.15;51.04;96253.41;5137575;27;20023;-38
2022/08/19 04:06:29;;;;;;;4.68;1.80;;;;;;;29.17;51.13;96259.19;5137614;27;20440;-38
2022/08/19 04:08:57;;;;;;;5.30;2.50;;;;;;;29.07;51.27;96265.84;5137420;27;20488;-37
2022/08/19 04:11:33;;;;;;;8.00;2.47;;;;;;;29.15;50.99;96247.06;5137467;27;20123;-37
2022/08/19 04:14:00;;;;;;;5.28;2.17;;;;;;;29.13;51.15;96242.03;5137478;27;20023;-38
2022/08/19 04:16:28;;;;;;;7.80;2.15;;;;;;;29.13;50.93;96239.25;5137410;27;20039;-39
2022/08/19 04:18:55;;;;;;;6.25;2.22;;;;;;;29.06;50.96;96228.81;5137323;27;20476;-37
2022/08/19 04:21:26;;;;;;;5.70;2.08;;;;;;;29.10;50.99;96217.28;5135853;27;20384;-39
2022/08/19 04:23:52;;;;;;;3.63;1.50;;;;;;;29.13;50.96;96221.75;5137438;27;20062;-38
2022/08/19 04:26:20;;;;;;;5.10;1.80;;;;;;;29.12;50.89;96225.84;5137526;27;20027;-38
2022/08/19 04:28:47;;;;;;;4.10;1.95;;;;;;;29.13;50.73;96249.69;5136921;27;20038;-37
2022/08/19 04:31:27;;;;;;;5.13;1.95;;;;;;;29.20;50.40;96243.34;5137056;27;20027;-37
2022/08/19 04:33:55;;;;;;;6.32;2.08;;;;;;;29.16;50.64;96248.56;5137474;27;20029;-39
2022/08/19 04:36:23;;;;;;;4.18;1.65;;;;;;;29.14;50.59;96246.34;5136962;27;20156;-38
2022/08/19 04:38:53;;;;;;;4.85;2.10;;;;;;;29.15;50.61;96241.50;5136859;27;20019;-39
2022/08/19 04:44:03;;;;;;;5.72;2.55;;;;;;;29.16;50.19;96217.84;5136935;27;20030;-40
2022/08/19 04:46:30;;;;;;;5.70;1.85;;;;;;;29.13;50.29;96222.50;5136961;27;20084;-39
2022/08/19 04:48:56;;;;;;;4.78;2.00;;;;;;;29.11;50.45;96215.97;5136610;27;20023;-38
2022/08/19 04:51:23;;;;;;;6.05;1.90;;;;;;;29.12;50.33;96209.84;5136908;27;20023;-37
2022/08/19 04:53:48;;;;;;;8.38;1.80;;;;;;;29.12;50.45;96195.88;5136630;27;20030;-37
2022/08/19 04:56:17;;;;;;;5.78;1.98;;;;;;;29.07;50.59;96188.41;5136525;27;20019;-38
2022/08/19 04:58:44;;;;;;;6.05;2.42;;;;;;;29.02;50.70;96183.78;5136661;27;20026;-38
2022/08/19 05:01:14;;;;;;;6.25;1.92;;;;;;;29.11;50.75;96174.09;5136572;27;20368;-38
2022/08/19 05:03:39;;;;;;;7.10;2.53;;;;;;;29.07;50.49;96157.69;5136629;27;20469;-36
2022/08/19 05:06:11;;;;;;;5.82;2.00;;;;;;;29.13;50.57;96165.91;5136383;27;20047;-37
2022/08/19 05:08:40;;;;;;;3.95;1.80;;;;;;;29.08;50.36;96172.41;5136680;27;20496;-38
2022/08/19 05:11:15;;;;;;;4.72;1.80;;;;;;;29.14;50.19;96175.78;5136143;27;20023;-37
2022/08/19 05:13:42;;;;;;;4.72;1.73;;;;;;;29.04;50.90;96175.59;5136229;27;20102;-38
2022/08/19 05:16:10;;;;;;;6.65;1.80;;;;;;;29.03;50.81;96162.94;5136442;27;20038;-38
2022/08/19 05:24:08;;;;;;;4.22;1.95;;;;;;;28.98;51.22;96161.03;5136306;27;20026;-37
2022/08/19 05:26:35;;;;;;;5.68;1.95;;;;;;;28.89;51.58;96167.94;5136109;27;20469;-36
2022/08/19 05:29:01;;;;;;;6.82;1.90;;;;;;;28.88;51.57;96160.09;5135875;27;20060;-39
2022/08/19 05:31:26;;;;;;;6.72;1.90;;;;;;;28.87;51.52;96150.97;5135952;27;20034;-38
2022/08/19 05:33:52;;;;;;;4.90;1.70;;;;;;;28.82;51.74;96165.09;5135759;27;20027;-37
2022/08/19 05:36:19;;;;;;;6.80;1.85;;;;;;;28.83;51.62;96153.38;5135692;27;20047;-37
2022/08/19 05:38:47;;;;;;;7.28;1.92;;;;;;;28.95;51.04;96146.16;5135922;27;20019;-37
2022/08/19 05:41:14;;;;;;;5.25;1.75;;;;;;;28.97;51.00;96158.81;5136058;27;20075;-37
2022/08/19 05:43:39;;;;;;;4.60;1.90;;;;;;;28.99;50.67;96164.59;5136179;27;20023;-36
2022/08/19 05:46:06;;;;;;;5.70;1.70;;;;;;;28.89;51.18;96156.00;5135620;27;20079;-38
2022/08/19 05:48:33;;;;;;;6.85;2.03;;;;;;;28.85;51.09;96159.16;5135496;27;20019;-40
2022/08/19 05:51:05;;;;;;;3.25;1.40;;;;;;;28.89;50.77;96158.81;5135757;27;20027;-36
2022/08/19 05:53:32;;;;;;;6.28;2.25;;;;;;;28.89;50.81;96173.50;5135588;27;20457;-38
2022/08/19 05:55:58;;;;;;;3.78;1.88;;;;;;;28.97;50.25;96184.69;5135694;27;20022;-37
2022/08/19 05:58:24;;;;;;;6.95;1.95;;;;;;;28.94;50.48;96189.31;5135391;27;20392;-39
2022/08/19 06:00:50;;;;;;;3.90;1.40;;;;;;;28.91;50.33;96189.72;5135358;27;20021;-37
2022/08/19 06:03:15;;;;;;;5.03;1.90;;;;;;;28.93;50.34;96173.16;5135398;27;20023;-37
2022/08/19 06:05:42;;;;;;;5.88;1.90;;;;;;;28.94;50.39;96177.41;5135342;27;20136;-37
2022/08/19 06:08:07;;;;;;;6.70;1.88;;;;;;;28.98;50.33;96191.75;5135195;27;20023;-38
2022/08/19 06:10:33;;;;;;;4.50;1.63;;;;;;;28.99;50.18;96189.72;5135365;27;20493;-36
2022/08/19 06:12:58;;;;;;;5.35;1.60;;;;;;;28.99;49.93;96187.66;5134105;27;20019;-38
2022/08/19 06:15:27;;;;;;;3.85;1.73;;;;;;;29.01;50.00;96193.44;5135235;27;20034;-39
2022/08/19 06:17:53;;;;;;;5.25;1.77;;;;;;;29.00;50.09;96194.75;5135204;27;20027;-37
2022/08/19 06:20:20;;;;;;;4.57;2.03;;;;;;;28.99;50.18;96196.03;5134771;27;20434;-38
2022/08/19 06:23:42;;;;;;;3.65;1.88;;;;;;;28.97;50.11;96201.44;5122994;27;20401;-37
2022/08/19 06:26:41;;;;;;;4.25;1.67;;;;;;;28.98;50.28;96205.72;5091904;28;20028;-39
2022/08/19 06:29:09;;;;;;;5.63;2.10;;;;;;;28.97;50.13;96206.25;5124953;27;20027;-37
2022/08/19 06:31:38;;;;;;;5.35;1.42;;;;;;;28.96;50.06;96222.28;5133018;27;20110;-38
2022/08/19 06:34:41;;;;;;;6.60;1.83;;;;;;;28.87;50.56;96212.41;5132849;27;20080;-38
2022/08/19 06:37:07;;;;;;;6.32;1.95;;;;;;;28.84;50.62;96221.88;5133012;27;20057;-37
2022/08/19 06:39:38;;;;;;;5.25;2.25;;;;;;;28.51;51.96;96225.63;5131385;27;20078;-38
2022/08/19 06:42:06;;;;;;;3.67;1.60;;;;;;;28.67;51.63;96232.78;5112507;28;20043;-38
2022/08/19 06:44:36;;;;;;;5.20;1.70;;;;;;;28.58;52.14;96247.22;5112390;28;20024;-38
2022/08/19 06:47:07;;;;;;;5.10;1.90;;;;;;;28.54;52.50;96252.44;5112023;28;20762;-38
2022/08/19 06:49:33;;;;;;;4.75;1.98;;;;;;;28.52;52.64;96243.88;5111820;28;20374;-36
2022/08/19 06:51:59;;;;;;;6.30;1.90;;;;;;;28.59;52.70;96243.16;5111161;28;20027;-37
2022/08/19 06:54:28;;;;;;;5.70;1.88;;;;;;;28.64;52.59;96236.66;5111468;28;20039;-37
2022/08/19 06:56:54;;;;;;;4.32;2.00;;;;;;;28.51;53.26;96253.53;5111710;28;20031;-36
2022/08/19 06:59:22;;;;;;;4.90;2.08;;;;;;;28.42;53.83;96246.44;5111406;28;20068;-37
2022/08/19 07:01:50;;;;;;;8.43;2.85;;;;;;;28.55;53.64;96242.78;5111780;28;20024;-40
2022/08/19 07:04:19;;;;;;;5.53;2.20;;;;;;;28.62;53.01;96235.72;5112115;28;20114;-37
2022/08/19 07:06:45;;;;;;;4.63;1.80;;;;;;;28.61;53.33;96234.97;5112113;28;20043;-36
2022/08/19 07:09:13;;;;;;;5.20;1.92;;;;;;;28.58;52.97;96230.50;5111891;28;20052;-37
2022/08/19 07:11:45;;;;;;;6.90;2.30;;;;;;;28.71;52.85;96238.72;5111810;28;20039;-38
2022/08/19 07:14:10;;;;;;;6.53;2.17;;;;;;;28.56;53.07;96238.69;5112134;28;20030;-37
2022/08/19 07:16:36;;;;;;;5.72;2.03;;;;;;;28.24;53.87;96253.03;5118070;28;20110;-40
2022/08/19 07:19:01;;;;;;;7.55;2.10;;;;;;;28.26;54.16;96244.09;5132615;27;20422;-37
2022/08/19 07:21:28;;;;;;;4.60;1.92;;;;;;;28.23;54.35;96255.06;5132633;27;20034;-40
2022/08/19 07:23:55;;;;;;;4.38;1.83;;;;;;;28.26;53.73;96256.00;5133386;27;20035;-37
2022/08/19 07:26:25;;;;;;;5.00;2.50;;;;;;;28.13;54.12;96236.56;5136947;27;20426;-38
2022/08/19 07:28:51;;;;;;;6.10;1.95;;;;;;;27.94;54.47;96242.41;5136674;27;20027;-37
2022/08/19 07:31:21;;;;;;;3.60;1.80;;;;;;;27.85;54.22;96254.03;5136618;27;20027;-40
2022/08/19 07:33:49;;;;;;;4.95;2.22;;;;;;;27.78;53.77;96246.38;5135000;27;20031;-38
2022/08/19 07:36:17;;;;;;;7.28;2.25;;;;;;;27.81;54.05;96239.72;5135064;27;20050;-40
2022/08/19 07:38:45;;;;;;;5.00;2.45;;;;;;;27.78;53.47;96243.59;5136411;27;20027;-37
2022/08/19 07:41:12;;;;;;;6.20;2.33;;;;;;;27.90;53.40;96261.50;5137610;27;20401;-37
2022/08/19 07:43:39;;;;;;;6.25;2.25;;;;;;;27.93;52.85;96254.84;5137905;27;20038;-38
2022/08/19 07:46:06;;;;;;;4.00;2.22;;;;;;;27.80;53.04;96257.72;5115058;27;20023;-38
2022/08/19 07:48:32;;;;;;;5.53;2.00;;;;;;;27.79;52.74;96253.44;5107287;28;20028;-37
2022/08/19 07:51:02;;;;;;;6.63;2.28;;;;;;;27.83;52.39;96264.97;5100949;28;20020;-37
2022/08/19 07:53:29;;;;;;;5.47;2.42;;;;;;;27.77;52.05;96256.78;5096894;28;20371;-37
2022/08/19 07:55:59;;;;;;;5.40;2.17;;;;;;;28.04;51.04;96239.88;5096978;28;20031;-38
2022/08/19 07:58:25;;;;;;;4.60;2.03;;;;;;;28.11;50.95;96253.84;5096791;28;20030;-38
2022/08/19 08:00:51;;;;;;;3.92;2.35;;;;;;;27.46;52.53;96233.47;5096865;28;20020;-40
2022/08/19 08:03:19;;;;;;;5.13;2.30;;;;;;;27.84;51.01;96256.06;5096656;28;20381;-37
2022/08/19 08:11:11;;;;;;;4.45;2.10;;;;;;;27.99;50.19;96232.38;5096903;28;20495;-38
2022/08/19 08:13:36;;;;;;;5.53;2.13;;;;;;;27.93;50.40;96256.91;5096699;28;20397;-38
2022/08/19 08:16:03;;;;;;;5.88;2.15;;;;;;;27.81;50.68;96245.28;5096714;28;20024;-38
2022/08/19 08:18:28;;;;;;;7.63;2.75;;;;;;;28.06;50.03;96232.47;5096422;28;20143;-37
2022/08/19 08:20:58;;;;;;;3.17;1.73;;;;;;;28.14;49.50;96244.38;5096248;28;20162;-37
2022/08/19 08:23:28;;;;;;;6.97;2.10;;;;;;;28.01;49.90;96246.53;5096112;28;20410;-38
2022/08/19 08:25:56;;;;;;;5.32;2.30;;;;;;;28.14;49.89;96252.00;5096173;28;20024;-37
2022/08/19 08:28:23;;;;;;;4.35;2.15;;;;;;;28.22;49.49;96261.19;5096491;28;20047;-38
2022/08/19 08:30:49;;;;;;;4.35;2.00;;;;;;;28.31;49.21;96274.66;5094819;28;20382;-38
2022/08/19 08:33:23;;;;;;;4.30;2.70;;;;;;;28.36;49.06;96298.09;5094702;28;20024;-37
2022/08/19 08:35:49;;;;;;;6.10;2.60;;;;;;;28.43;48.72;96291.81;5094786;28;20128;-41
2022/08/19 08:38:15;;;;;;;5.53;2.58;;;;;;;28.27;49.00;96284.66;5108459;28;20098;-38
2022/08/19 08:40:54;;;;;;;4.10;2.35;;;;;;;28.33;48.64;96288.75;5115275;28;20103;-37
2022/08/19 08:43:35;;;;;;;5.72;2.50;;;;;;;28.12;49.35;96299.19;5116379;28;20024;-37
2022/08/19 08:46:09;;;;;;;6.15;2.20;;;;;;;28.14;49.17;96289.00;5114166;28;20040;-37
2022/08/19 08:48:35;;;;;;;4.53;2.20;;;;;;;28.11;48.76;96295.66;5116517;28;20147;-38
2022/08/19 08:51:04;;;;;;;4.43;2.30;;;;;;;28.20;48.82;96289.63;5115958;28;20052;-37
2022/08/19 08:53:31;;;;;;;4.00;2.25;;;;;;;28.10;49.12;96291.38;5116035;28;20027;-37
2022/08/19 08:56:00;;;;;;;3.40;2.25;;;;;;;28.09;48.91;96300.28;5112917;28;20106;-37
2022/08/19 08:58:32;;;;;;;4.47;2.13;;;;;;;28.20;48.62;96286.81;5103785;28;20031;-37
2022/08/19 09:00:58;;;;;;;3.60;2.08;;;;;;;28.34;48.60;96289.50;5111947;28;20035;-37
2022/08/19 09:03:27;;;;;;;3.63;2.33;;;;;;;28.22;48.59;96289.06;5095794;28;20040;-39
2022/08/19 09:06:16;;;;;;;4.80;1.80;;;;;;;28.33;48.45;96299.16;5098969;28;20035;-38
2022/08/19 09:09:13;;;;;;;4.70;1.90;;;;;;;28.44;47.89;96290.50;5093188;28;20055;-38
2022/08/19 09:11:44;;;;;;;4.47;2.13;;;;;;;28.47;48.13;96304.09;5093663;28;20024;-37
2022/08/19 09:14:30;;;;;;;4.38;1.85;;;;;;;28.46;48.46;96299.81;5093873;28;20028;-37
2022/08/19 09:16:57;;;;;;;4.10;2.22;;;;;;;28.45;48.39;96312.25;5093538;28;20434;-38
2022/08/19 09:19:23;;;;;;;4.53;1.67;;;;;;;28.34;48.84;96314.59;5093640;28;20026;-39
2022/08/19 09:21:50;;;;;;;4.03;1.55;;;;;;;28.38;48.49;96326.91;5093474;28;20020;-38
2022/08/19 09:24:15;;;;;;;5.53;1.85;;;;;;;28.32;48.68;96315.16;5093736;28;20522;-38
2022/08/19 09:26:43;;;;;;;4.22;2.03;;;;;;;28.29;48.91;96309.94;5093171;28;20106;-38
2022/08/19 09:29:09;;;;;;;1.92;1.45;;;;;;;28.17;49.20;96313.00;5093378;28;20385;-37
2022/08/19 09:31:35;;;;;;;4.05;1.42;;;;;;;28.31;48.80;96327.63;5092998;28;20036;-37
2022/08/19 09:34:04;;;;;;;3.08;1.88;;;;;;;28.27;48.94;96330.00;5093452;28;20102;-39
2022/08/19 09:36:35;;;;;;;2.97;1.58;;;;;;;28.06;49.43;96312.56;5093315;28;20024;-38
2022/08/19 09:39:03;;;;;;;4.45;1.80;;;;;;;28.22;48.72;96317.69;5093220;28;20024;-37
2022/08/19 09:41:29;;;;;;;4.22;1.60;;;;;;;28.05;48.99;96325.75;5093364;28;20062;-40
2022/08/19 09:43:56;;;;;;;4.45;1.67;;;;;;;28.01;49.22;96319.75;5092845;28;20048;-39
2022/08/19 09:46:25;;;;;;;2.80;1.50;;;;;;;28.05;49.07;96313.84;5092954;28;20040;-38
2022/08/19 09:48:51;;;;;;;7.47;1.70;;;;;;;27.81;49.69;96323.31;5092861;28;20177;-40
2022/08/19 09:51:21;;;;;;;5.18;1.90;;;;;;;27.99;49.25;96344.63;5091059;28;20096;-39
2022/08/19 09:53:49;;;;;;;4.07;1.67;;;;;;;27.94;49.52;96342.00;5092835;28;20048;-41
2022/08/19 09:56:17;;;;;;;5.32;1.63;;;;;;;28.17;48.46;96338.09;5092781;28;20028;-36
2022/08/19 09:58:42;;;;;;;4.45;1.85;;;;;;;28.06;49.38;96338.41;5091504;28;20031;-37
2022/08/19 10:01:08;;;;;;;4.45;1.70;;;;;;;27.79;50.29;96332.22;5092757;28;20016;-37
2022/08/19 10:03:36;;;;;;;4.55;1.70;;;;;;;28.13;49.48;96336.94;5092584;28;20062;-37
2022/08/19 10:06:04;;;;;;;3.33;1.42;;;;;;;28.25;48.81;96329.81;5092701;28;20501;-37
2022/08/19 10:08:33;;;;;;;3.35;1.90;;;;;;;28.30;48.81;96333.75;5092262;28;20070;-38
2022/08/19 10:11:01;;;;;;;2.67;1.40;;;;;;;28.40;48.71;96326.38;5096518;28;20451;-37
2022/08/19 10:13:29;;;;;;;3.45;1.60;;;;;;;28.45;48.52;96329.00;5111064;28;20036;-37
2022/08/19 10:16:01;;;;;;;3.85;1.48;;;;;;;28.47;48.52;96328.44;5112955;27;20837;-40
2022/08/19 10:18:27;;;;;;;;;;;;;;;28.46;48.62;96316.53;5112818;28;20055;-37
2022/08/19 10:21:19;;;;;;;3.75;1.50;;;;;;;28.56;48.65;96322.38;5112361;28;19951;-38
2022/08/19 10:23:48;;;;;;;1.98;1.13;;;;;;;28.60;48.55;96314.41;5112831;28;20453;-39
2022/08/19 10:26:16;;;;;;;3.83;1.67;;;;;;;28.64;48.42;96311.25;5112632;28;20039;-40
2022/08/19 10:28:42;;;;;;;2.55;1.38;;;;;;;28.63;48.50;96310.50;5123934;27;20061;-38
2022/08/19 10:31:12;;;;;;;3.05;1.60;;;;;;;28.65;48.49;96307.16;5112700;27;20072;-37
2022/08/19 10:33:38;;;;;;;8.50;5.90;;;;;;;28.62;48.58;96311.81;5118698;27;20034;-39
2022/08/19 10:36:06;;;;;;;5.85;3.15;;;;;;;28.64;48.39;96316.84;5133027;27;20401;-36
2022/08/19 10:38:33;;;;;;;3.72;2.58;;;;;;;28.58;48.46;96311.41;5133198;27;20357;-37
2022/08/19 10:41:07;;;;;;;5.57;3.30;;;;;;;28.56;48.31;96308.44;5130906;27;20456;-38
2022/08/19 10:43:36;;;;;;;3.33;2.67;;;;;;;28.65;48.18;96313.50;5116660;27;20031;-38
2022/08/19 10:46:03;;;;;;;3.72;2.88;;;;;;;28.67;48.18;96316.50;5114697;27;20034;-40
2022/08/19 10:48:29;;;;;;;4.88;3.30;;;;;;;28.68;47.60;96317.25;5132633;27;20015;-40
2022/08/19 10:53:41;;;;;;;5.30;3.08;;;;;;;28.44;48.46;96319.13;5132967;27;20413;-38
2022/08/19 10:58:50;;;;;;;3.03;2.47;;;;;;;28.43;47.92;96320.47;5124067;27;20031;-39
2022/08/19 11:01:15;;;;;;;5.70;3.20;;;;;;;28.21;48.44;96318.25;5112157;28;20031;-39
2022/08/19 11:03:41;;;;;;;4.95;2.92;;;;;;;28.48;47.78;96325.13;5112159;28;20019;-36
2022/08/19 11:06:08;;;;;;;5.40;3.15;;;;;;;28.57;47.77;96312.69;5112062;28;20024;-36
2022/08/19 11:08:37;;;;;;;3.30;2.42;;;;;;;28.36;47.49;96309.22;5111693;28;20055;-37
2022/08/19 11:11:05;;;;;;;3.80;2.60;;;;;;;28.42;47.68;96307.06;5096676;28;20081;-37
2022/08/19 11:13:34;;;;;;;3.67;2.13;;;;;;;28.19;48.25;96307.63;5082439;28;20035;-37
2022/08/19 11:16:07;;;;;;;3.30;2.30;;;;;;;28.42;48.10;96315.41;5079613;28;20433;-37
2022/08/19 11:18:34;;;;;;;;;;;;;;;28.49;46.83;96307.09;5073534;28;20700;-40
2022/08/19 11:21:09;;;;;;;2.92;2.40;;;;;;;28.60;47.22;96306.03;5074472;28;19922;-39
2022/08/19 11:23:34;;;;;;;3.80;2.50;;;;;;;28.51;46.98;96310.06;5073251;28;20396;-38
2022/08/19 11:26:00;;;;;;;3.95;2.80;;;;;;;28.62;46.42;96314.59;5071593;28;20028;-37
2022/08/19 11:28:26;;;;;;;2.83;2.10;;;;;;;28.63;46.80;96312.56;5073892;28;20034;-37
2022/08/19 11:30:51;;;;;;;3.70;2.45;;;;;;;28.41;47.52;96311.88;5076668;28;20043;-39
2022/08/19 11:33:17;;;;;;;3.30;1.90;;;;;;;28.63;47.09;96315.34;5073111;28;20035;-39
2022/08/19 11:35:43;;;;;;;2.92;2.30;;;;;;;28.61;46.95;96318.69;5074897;28;20928;-37
2022/08/19 11:38:08;;;;;;;2.90;2.17;;;;;;;28.66;46.63;96314.25;5074431;28;20409;-37
2022/08/19 11:40:34;;;;;;;4.40;2.20;;;;;;;28.25;47.92;96321.44;5073045;28;20024;-37
2022/08/19 11:42:59;;;;;;;4.75;2.20;;;;;;;27.81;49.07;96326.09;5072802;28;20150;-40
2022/08/19 11:45:27;;;;;;;4.25;1.70;;;;;;;28.18;47.89;96328.47;5074129;28;20081;-37
2022/08/19 11:47:53;;;;;;;4.90;1.90;;;;;;;28.19;47.90;96337.56;5074343;28;20032;-38
2022/08/19 11:50:19;;;;;;;2.75;2.20;;;;;;;28.36;47.36;96337.13;5086635;28;20028;-38
2022/08/19 11:52:46;;;;;;;4.65;1.90;;;;;;;28.26;48.07;96333.34;5089561;28;20028;-38
2022/08/19 11:55:13;;;;;;;3.53;2.00;;;;;;;28.27;47.99;96318.09;5091197;28;20028;-37
2022/08/19 11:57:40;;;;;;;3.15;2.10;;;;;;;28.34;47.96;96328.56;5091255;28;20036;-38
2022/08/19 12:00:12;;;;;;;2.92;1.95;;;;;;;28.41;48.05;96337.00;5089335;28;20498;-36